Terminal Aerodrome Forecast
Issued by NWS Tulsa, OK

Home | Current Version | Previous Version | Text Only | Print | Product List | Glossary Off
Versions: 1 2 3 4 5 6 7 8 9 10 11 12 13 14 15 16

000
FTUS44 KTSA 031012 AAA
TAFFSM
TAF AMD
KFSM 031012Z 0310/0406 27010KT P6SM BKN050
      TEMPO 0310/0313 5SM -TSRA BR SCT015 BKN025CB
     FM031900 26007KT P6SM VCTS SCT025 BKN040CB PROB30 0320/0402 5SM
      -TSRA BKN025CB
     FM040200 VRB05KT P6SM BKN040 PROB30 0402/0406 -TSRA BKN050CB=

USA.gov is the U.S. government's official web portal to all federal, state and local government web resources and services.